sensor_id;sensor_type;location;lat;lon;timestamp;pressure;altitude;pressure_sealevel;temperature
67822;BMP180;54434;50.096;20.082;2022-10-13T00:02:24;99758.40;;;2.94
67822;BMP180;54434;50.096;20.082;2022-10-13T00:04:59;99763.20;;;3.00
67822;BMP180;54434;50.096;20.082;2022-10-13T00:07:36;99758.80;;;3.00
67822;BMP180;54434;50.096;20.082;2022-10-13T00:10:12;99755.80;;;3.10
67822;BMP180;54434;50.096;20.082;2022-10-13T00:12:48;99753.40;;;3.10
67822;BMP180;54434;50.096;20.082;2022-10-13T00:15:24;99753.20;;;3.10
67822;BMP180;54434;50.096;20.082;2022-10-13T00:18:01;99754.00;;;3.10
67822;BMP180;54434;50.096;20.082;2022-10-13T00:20:41;99746.40;;;3.10
67822;BMP180;54434;50.096;20.082;2022-10-13T00:23:18;99748.60;;;3.06
67822;BMP180;54434;50.096;20.082;2022-10-13T00:25:55;99749.20;;;3.00
67822;BMP180;54434;50.096;20.082;2022-10-13T00:28:31;99746.60;;;3.00
67822;BMP180;54434;50.096;20.082;2022-10-13T00:31:17;99746.60;;;2.90
67822;BMP180;54434;50.096;20.082;2022-10-13T00:33:54;99750.80;;;2.82
67822;BMP180;54434;50.096;20.082;2022-10-13T00:36:31;99748.20;;;2.80
67822;BMP180;54434;50.096;20.082;2022-10-13T00:39:08;99749.00;;;2.70
67822;BMP180;54434;50.096;20.082;2022-10-13T00:41:43;99746.00;;;2.70
67822;BMP180;54434;50.096;20.082;2022-10-13T00:45:21;99743.00;;;2.74
67822;BMP180;54434;50.096;20.082;2022-10-13T00:48:01;99744.20;;;2.80
67822;BMP180;54434;50.096;20.082;2022-10-13T00:50:42;99744.00;;;2.80
67822;BMP180;54434;50.096;20.082;2022-10-13T00:53:22;99742.00;;;2.88
67822;BMP180;54434;50.096;20.082;2022-10-13T00:55:58;99735.40;;;2.90
67822;BMP180;54434;50.096;20.082;2022-10-13T00:58:35;99736.40;;;2.90
67822;BMP180;54434;50.096;20.082;2022-10-13T01:01:12;99742.00;;;2.80
67822;BMP180;54434;50.096;20.082;2022-10-13T01:03:48;99737.80;;;2.80
67822;BMP180;54434;50.096;20.082;2022-10-13T01:06:25;99732.60;;;2.80
67822;BMP180;54434;50.096;20.082;2022-10-13T01:09:00;99733.00;;;2.70
67822;BMP180;54434;50.096;20.082;2022-10-13T01:12:00;99729.00;;;2.64
67822;BMP180;54434;50.096;20.082;2022-10-13T01:14:45;99727.00;;;2.60
67822;BMP180;54434;50.096;20.082;2022-10-13T01:17:35;99723.20;;;2.52
67822;BMP180;54434;50.096;20.082;2022-10-13T01:21:04;99721.20;;;2.50
67822;BMP180;54434;50.096;20.082;2022-10-13T01:24:36;99720.00;;;2.40
67822;BMP180;54434;50.096;20.082;2022-10-13T01:28:06;99714.60;;;2.30
67822;BMP180;54434;50.096;20.082;2022-10-13T01:30:50;99705.40;;;2.20
67822;BMP180;54434;50.096;20.082;2022-10-13T01:33:37;99703.80;;;2.20
67822;BMP180;54434;50.096;20.082;2022-10-13T01:36:30;99704.00;;;2.20
67822;BMP180;54434;50.096;20.082;2022-10-13T01:39:16;99707.00;;;2.20
67822;BMP180;54434;50.096;20.082;2022-10-13T01:42:07;99703.00;;;2.20
67822;BMP180;54434;50.096;20.082;2022-10-13T01:44:50;99704.00;;;2.20
67822;BMP180;54434;50.096;20.082;2022-10-13T01:47:29;99702.20;;;2.20
67822;BMP180;54434;50.096;20.082;2022-10-13T01:50:08;99701.60;;;2.20
67822;BMP180;54434;50.096;20.082;2022-10-13T01:52:45;99697.20;;;2.20
67822;BMP180;54434;50.096;20.082;2022-10-13T01:55:21;99693.00;;;2.20
67822;BMP180;54434;50.096;20.082;2022-10-13T01:57:58;99692.80;;;2.20
67822;BMP180;54434;50.096;20.082;2022-10-13T02:00:58;99694.40;;;2.20
67822;BMP180;54434;50.096;20.082;2022-10-13T02:03:50;99693.20;;;2.20
67822;BMP180;54434;50.096;20.082;2022-10-13T02:06:33;99692.40;;;2.12
67822;BMP180;54434;50.096;20.082;2022-10-13T02:09:22;99696.00;;;2.10
67822;BMP180;54434;50.096;20.082;2022-10-13T02:12:22;99695.40;;;2.10
67822;BMP180;54434;50.096;20.082;2022-10-13T02:15:01;99693.20;;;2.10
67822;BMP180;54434;50.096;20.082;2022-10-13T02:17:38;99692.60;;;2.10
67822;BMP180;54434;50.096;20.082;2022-10-13T02:20:17;99692.40;;;2.10
67822;BMP180;54434;50.096;20.082;2022-10-13T02:23:00;99689.40;;;2.10
67822;BMP180;54434;50.096;20.082;2022-10-13T02:25:38;99688.60;;;2.10
67822;BMP180;54434;50.096;20.082;2022-10-13T02:28:15;99689.00;;;2.10
67822;BMP180;54434;50.096;20.082;2022-10-13T02:30:51;99683.60;;;2.10
67822;BMP180;54434;50.096;20.082;2022-10-13T02:33:27;99683.40;;;2.08
67822;BMP180;54434;50.096;20.082;2022-10-13T02:36:04;99684.40;;;2.10
67822;BMP180;54434;50.096;20.082;2022-10-13T02:38:39;99681.80;;;2.08
67822;BMP180;54434;50.096;20.082;2022-10-13T02:41:17;99686.20;;;2.00
67822;BMP180;54434;50.096;20.082;2022-10-13T02:43:53;99685.60;;;2.00
67822;BMP180;54434;50.096;20.082;2022-10-13T02:46:32;99683.60;;;1.90
67822;BMP180;54434;50.096;20.082;2022-10-13T02:49:08;99681.40;;;1.90
67822;BMP180;54434;50.096;20.082;2022-10-13T02:51:44;99681.80;;;1.90
67822;BMP180;54434;50.096;20.082;2022-10-13T02:54:20;99675.20;;;1.90
67822;BMP180;54434;50.096;20.082;2022-10-13T02:56:56;99674.00;;;1.90
67822;BMP180;54434;50.096;20.082;2022-10-13T02:59:31;99672.40;;;1.90
67822;BMP180;54434;50.096;20.082;2022-10-13T03:02:07;99669.40;;;1.90
67822;BMP180;54434;50.096;20.082;2022-10-13T03:04:43;99670.80;;;1.82
67822;BMP180;54434;50.096;20.082;2022-10-13T03:07:19;99674.20;;;1.80
67822;BMP180;54434;50.096;20.082;2022-10-13T03:09:55;99678.40;;;1.70
67822;BMP180;54434;50.096;20.082;2022-10-13T03:12:30;99677.00;;;1.60
67822;BMP180;54434;50.096;20.082;2022-10-13T03:15:09;99677.80;;;1.60
67822;BMP180;54434;50.096;20.082;2022-10-13T03:17:45;99679.00;;;1.50
67822;BMP180;54434;50.096;20.082;2022-10-13T03:20:21;99674.60;;;1.40
67822;BMP180;54434;50.096;20.082;2022-10-13T03:22:57;99674.60;;;1.30
67822;BMP180;54434;50.096;20.082;2022-10-13T03:25:32;99674.80;;;1.30
67822;BMP180;54434;50.096;20.082;2022-10-13T03:28:09;99675.20;;;1.22
67822;BMP180;54434;50.096;20.082;2022-10-13T03:30:47;99673.40;;;1.20
67822;BMP180;54434;50.096;20.082;2022-10-13T03:33:22;99671.80;;;1.20
67822;BMP180;54434;50.096;20.082;2022-10-13T03:36:06;99666.20;;;1.20
67822;BMP180;54434;50.096;20.082;2022-10-13T03:38:42;99659.00;;;1.20
67822;BMP180;54434;50.096;20.082;2022-10-13T03:41:19;99662.00;;;1.20
67822;BMP180;54434;50.096;20.082;2022-10-13T03:43:58;99659.20;;;1.20
67822;BMP180;54434;50.096;20.082;2022-10-13T03:46:36;99659.20;;;1.20
67822;BMP180;54434;50.096;20.082;2022-10-13T03:49:14;99658.00;;;1.20
67822;BMP180;54434;50.096;20.082;2022-10-13T03:51:52;99662.60;;;1.20
67822;BMP180;54434;50.096;20.082;2022-10-13T03:54:28;99657.80;;;1.20
67822;BMP180;54434;50.096;20.082;2022-10-13T03:57:04;99658.20;;;1.22
67822;BMP180;54434;50.096;20.082;2022-10-13T03:59:41;99654.00;;;1.20
67822;BMP180;54434;50.096;20.082;2022-10-13T04:02:17;99651.00;;;1.20
67822;BMP180;54434;50.096;20.082;2022-10-13T04:04:53;99648.80;;;1.18
67822;BMP180;54434;50.096;20.082;2022-10-13T04:07:30;99651.80;;;1.10
67822;BMP180;54434;50.096;20.082;2022-10-13T04:10:11;99653.20;;;1.10
67822;BMP180;54434;50.096;20.082;2022-10-13T04:12:51;99655.00;;;1.10
67822;BMP180;54434;50.096;20.082;2022-10-13T04:15:27;99658.80;;;1.20
67822;BMP180;54434;50.096;20.082;2022-10-13T04:18:03;99655.00;;;1.20
67822;BMP180;54434;50.096;20.082;2022-10-13T04:20:41;99655.00;;;1.20
67822;BMP180;54434;50.096;20.082;2022-10-13T04:23:17;99654.60;;;1.20
67822;BMP180;54434;50.096;20.082;2022-10-13T04:25:54;99659.60;;;1.20
67822;BMP180;54434;50.096;20.082;2022-10-13T04:28:31;99660.40;;;1.30
67822;BMP180;54434;50.096;20.082;2022-10-13T04:31:09;99658.20;;;1.30
67822;BMP180;54434;50.096;20.082;2022-10-13T04:33:45;99655.60;;;1.38
67822;BMP180;54434;50.096;20.082;2022-10-13T04:36:22;99653.00;;;1.38
67822;BMP180;54434;50.096;20.082;2022-10-13T04:38:58;99651.40;;;1.40
67822;BMP180;54434;50.096;20.082;2022-10-13T04:41:34;99652.00;;;1.34
67822;BMP180;54434;50.096;20.082;2022-10-13T04:44:10;99655.60;;;1.30
67822;BMP180;54434;50.096;20.082;2022-10-13T04:46:46;99652.00;;;1.20
67822;BMP180;54434;50.096;20.082;2022-10-13T04:49:22;99649.20;;;1.10
67822;BMP180;54434;50.096;20.082;2022-10-13T04:51:58;99649.20;;;1.00
67822;BMP180;54434;50.096;20.082;2022-10-13T04:54:34;99646.00;;;0.90
67822;BMP180;54434;50.096;20.082;2022-10-13T04:57:10;99640.60;;;0.80
67822;BMP180;54434;50.096;20.082;2022-10-13T04:59:46;99645.80;;;0.80
67822;BMP180;54434;50.096;20.082;2022-10-13T05:02:22;99645.40;;;0.80
67822;BMP180;54434;50.096;20.082;2022-10-13T05:04:58;99647.60;;;0.80
67822;BMP180;54434;50.096;20.082;2022-10-13T05:07:34;99651.00;;;0.80
67822;BMP180;54434;50.096;20.082;2022-10-13T05:10:11;99655.40;;;0.90
67822;BMP180;54434;50.096;20.082;2022-10-13T05:12:47;99656.20;;;0.90
67822;BMP180;54434;50.096;20.082;2022-10-13T05:15:23;99651.20;;;1.00
67822;BMP180;54434;50.096;20.082;2022-10-13T05:18:00;99653.00;;;1.00
67822;BMP180;54434;50.096;20.082;2022-10-13T05:20:36;99649.20;;;1.00
67822;BMP180;54434;50.096;20.082;2022-10-13T05:23:12;99651.60;;;1.00
67822;BMP180;54434;50.096;20.082;2022-10-13T05:25:48;99646.60;;;1.10
67822;BMP180;54434;50.096;20.082;2022-10-13T05:28:24;99650.20;;;1.10
67822;BMP180;54434;50.096;20.082;2022-10-13T05:31:11;99647.40;;;1.20
67822;BMP180;54434;50.096;20.082;2022-10-13T05:33:49;99652.60;;;1.20
67822;BMP180;54434;50.096;20.082;2022-10-13T05:36:32;99659.00;;;1.26
67822;BMP180;54434;50.096;20.082;2022-10-13T05:39:10;99658.00;;;1.30
67822;BMP180;54434;50.096;20.082;2022-10-13T05:41:46;99654.60;;;1.40
67822;BMP180;54434;50.096;20.082;2022-10-13T05:44:26;99658.00;;;1.50
67822;BMP180;54434;50.096;20.082;2022-10-13T05:47:03;99662.00;;;1.60
67822;BMP180;54434;50.096;20.082;2022-10-13T05:49:41;99660.80;;;1.80
67822;BMP180;54434;50.096;20.082;2022-10-13T05:52:17;99657.20;;;1.90
67822;BMP180;54434;50.096;20.082;2022-10-13T05:55:03;99660.00;;;2.10
67822;BMP180;54434;50.096;20.082;2022-10-13T05:57:43;99658.20;;;2.20
67822;BMP180;54434;50.096;20.082;2022-10-13T06:00:21;99660.00;;;2.40
67822;BMP180;54434;50.096;20.082;2022-10-13T06:03:05;99661.60;;;2.52
67822;BMP180;54434;50.096;20.082;2022-10-13T06:05:48;99664.80;;;2.70
67822;BMP180;54434;50.096;20.082;2022-10-13T06:08:24;99662.40;;;2.90
67822;BMP180;54434;50.096;20.082;2022-10-13T06:11:00;99670.20;;;3.02
67822;BMP180;54434;50.096;20.082;2022-10-13T06:13:37;99666.80;;;3.20
67822;BMP180;54434;50.096;20.082;2022-10-13T06:16:13;99668.60;;;3.42
67822;BMP180;54434;50.096;20.082;2022-10-13T06:18:49;99670.00;;;3.60
67822;BMP180;54434;50.096;20.082;2022-10-13T06:21:28;99672.20;;;3.80
67822;BMP180;54434;50.096;20.082;2022-10-13T06:24:04;99674.80;;;4.00
67822;BMP180;54434;50.096;20.082;2022-10-13T06:26:40;99675.80;;;4.20
67822;BMP180;54434;50.096;20.082;2022-10-13T06:29:16;99671.20;;;4.30
67822;BMP180;54434;50.096;20.082;2022-10-13T06:31:52;99673.20;;;4.48
67822;BMP180;54434;50.096;20.082;2022-10-13T06:34:28;99675.60;;;4.60
67822;BMP180;54434;50.096;20.082;2022-10-13T06:37:04;99676.20;;;4.80
67822;BMP180;54434;50.096;20.082;2022-10-13T06:39:40;99676.00;;;4.90
67822;BMP180;54434;50.096;20.082;2022-10-13T06:42:16;99675.80;;;5.16
67822;BMP180;54434;50.096;20.082;2022-10-13T06:44:54;99676.00;;;5.60
67822;BMP180;54434;50.096;20.082;2022-10-13T06:47:30;99677.80;;;6.08
67822;BMP180;54434;50.096;20.082;2022-10-13T06:50:07;99674.60;;;6.56
67822;BMP180;54434;50.096;20.082;2022-10-13T06:52:43;99680.00;;;7.02
67822;BMP180;54434;50.096;20.082;2022-10-13T06:55:19;99671.00;;;7.40
67822;BMP180;54434;50.096;20.082;2022-10-13T06:57:55;99670.40;;;7.80
67822;BMP180;54434;50.096;20.082;2022-10-13T07:00:31;99669.00;;;8.20
67822;BMP180;54434;50.096;20.082;2022-10-13T07:03:09;99665.60;;;8.60
67822;BMP180;54434;50.096;20.082;2022-10-13T07:05:45;99667.60;;;8.90
67822;BMP180;54434;50.096;20.082;2022-10-13T07:08:21;99667.20;;;9.20
67822;BMP180;54434;50.096;20.082;2022-10-13T07:10:57;99669.60;;;9.36
67822;BMP180;54434;50.096;20.082;2022-10-13T07:13:33;99663.60;;;9.52
67822;BMP180;54434;50.096;20.082;2022-10-13T07:16:13;99664.60;;;9.80
67822;BMP180;54434;50.096;20.082;2022-10-13T07:18:50;99671.40;;;10.10
67822;BMP180;54434;50.096;20.082;2022-10-13T07:21:26;99668.80;;;10.30
67822;BMP180;54434;50.096;20.082;2022-10-13T07:24:03;99668.80;;;10.50
67822;BMP180;54434;50.096;20.082;2022-10-13T07:26:39;99669.00;;;10.70
67822;BMP180;54434;50.096;20.082;2022-10-13T07:29:15;99674.20;;;10.90
67822;BMP180;54434;50.096;20.082;2022-10-13T07:31:51;99677.40;;;11.10
67822;BMP180;54434;50.096;20.082;2022-10-13T07:34:27;99678.40;;;11.20
67822;BMP180;54434;50.096;20.082;2022-10-13T07:37:03;99669.80;;;11.34
67822;BMP180;54434;50.096;20.082;2022-10-13T07:39:39;99669.20;;;11.42
67822;BMP180;54434;50.096;20.082;2022-10-13T07:42:15;99674.20;;;11.60
67822;BMP180;54434;50.096;20.082;2022-10-13T07:44:51;99664.00;;;11.74
67822;BMP180;54434;50.096;20.082;2022-10-13T07:47:28;99663.40;;;11.80
67822;BMP180;54434;50.096;20.082;2022-10-13T07:50:05;99659.80;;;11.80
67822;BMP180;54434;50.096;20.082;2022-10-13T07:52:41;99658.80;;;12.00
67822;BMP180;54434;50.096;20.082;2022-10-13T07:55:18;99660.20;;;12.20
67822;BMP180;54434;50.096;20.082;2022-10-13T07:57:58;99657.20;;;12.30
67822;BMP180;54434;50.096;20.082;2022-10-13T08:00:40;99653.80;;;12.44
67822;BMP180;54434;50.096;20.082;2022-10-13T08:03:16;99651.00;;;12.50
67822;BMP180;54434;50.096;20.082;2022-10-13T08:05:52;99650.60;;;12.60
67822;BMP180;54434;50.096;20.082;2022-10-13T08:08:29;99647.60;;;12.70
67822;BMP180;54434;50.096;20.082;2022-10-13T08:11:09;99646.00;;;12.80
67822;BMP180;54434;50.096;20.082;2022-10-13T08:13:54;99639.20;;;12.90
67822;BMP180;54434;50.096;20.082;2022-10-13T08:16:35;99640.20;;;12.90
67822;BMP180;54434;50.096;20.082;2022-10-13T08:19:13;99644.20;;;13.08
67822;BMP180;54434;50.096;20.082;2022-10-13T08:21:50;99645.40;;;13.10
67822;BMP180;54434;50.096;20.082;2022-10-13T08:24:34;99636.20;;;13.00
67822;BMP180;54434;50.096;20.082;2022-10-13T08:27:16;99634.80;;;13.10
67822;BMP180;54434;50.096;20.082;2022-10-13T08:29:53;99635.00;;;13.10
67822;BMP180;54434;50.096;20.082;2022-10-13T08:32:29;99629.40;;;13.00
67822;BMP180;54434;50.096;20.082;2022-10-13T08:35:06;99628.80;;;12.94
67822;BMP180;54434;50.096;20.082;2022-10-13T08:37:42;99627.20;;;12.90
67822;BMP180;54434;50.096;20.082;2022-10-13T08:40:22;99627.60;;;12.90
67822;BMP180;54434;50.096;20.082;2022-10-13T08:42:58;99625.60;;;12.90
67822;BMP180;54434;50.096;20.082;2022-10-13T08:45:36;99624.00;;;12.80
67822;BMP180;54434;50.096;20.082;2022-10-13T08:48:23;99624.80;;;12.80
67822;BMP180;54434;50.096;20.082;2022-10-13T08:51:06;99626.60;;;12.80
67822;BMP180;54434;50.096;20.082;2022-10-13T08:53:45;99625.60;;;12.80
67822;BMP180;54434;50.096;20.082;2022-10-13T08:56:28;99619.80;;;12.80
67822;BMP180;54434;50.096;20.082;2022-10-13T08:59:08;99618.20;;;12.88
67822;BMP180;54434;50.096;20.082;2022-10-13T09:01:48;99616.80;;;12.90
67822;BMP180;54434;50.096;20.082;2022-10-13T09:04:34;99619.20;;;12.90
67822;BMP180;54434;50.096;20.082;2022-10-13T09:07:19;99619.20;;;12.70
67822;BMP180;54434;50.096;20.082;2022-10-13T09:09:57;99613.60;;;12.70
67822;BMP180;54434;50.096;20.082;2022-10-13T09:12:34;99616.00;;;12.68
67822;BMP180;54434;50.096;20.082;2022-10-13T09:15:13;99611.20;;;12.60
67822;BMP180;54434;50.096;20.082;2022-10-13T09:18:11;99605.60;;;12.60
67822;BMP180;54434;50.096;20.082;2022-10-13T09:20:47;99607.80;;;12.60
67822;BMP180;54434;50.096;20.082;2022-10-13T09:23:24;99601.00;;;12.60
67822;BMP180;54434;50.096;20.082;2022-10-13T09:26:16;99601.40;;;12.60
67822;BMP180;54434;50.096;20.082;2022-10-13T09:28:54;99600.40;;;12.50
67822;BMP180;54434;50.096;20.082;2022-10-13T09:31:31;99597.20;;;12.44
67822;BMP180;54434;50.096;20.082;2022-10-13T09:34:24;99599.60;;;12.38
67822;BMP180;54434;50.096;20.082;2022-10-13T09:37:17;99596.20;;;12.40
67822;BMP180;54434;50.096;20.082;2022-10-13T09:40:21;99593.40;;;12.50
67822;BMP180;54434;50.096;20.082;2022-10-13T09:42:57;99587.80;;;12.60
67822;BMP180;54434;50.096;20.082;2022-10-13T09:45:34;99585.60;;;12.60
67822;BMP180;54434;50.096;20.082;2022-10-13T09:48:22;99588.20;;;12.60
67822;BMP180;54434;50.096;20.082;2022-10-13T09:50:59;99583.40;;;12.60
67822;BMP180;54434;50.096;20.082;2022-10-13T09:53:41;99582.80;;;12.60
67822;BMP180;54434;50.096;20.082;2022-10-13T09:56:32;99581.40;;;12.70
67822;BMP180;54434;50.096;20.082;2022-10-13T09:59:23;99578.00;;;12.80
67822;BMP180;54434;50.096;20.082;2022-10-13T10:02:16;99582.00;;;12.80
67822;BMP180;54434;50.096;20.082;2022-10-13T10:05:04;99577.20;;;12.90
67822;BMP180;54434;50.096;20.082;2022-10-13T10:07:41;99572.60;;;12.90
67822;BMP180;54434;50.096;20.082;2022-10-13T10:10:31;99566.80;;;12.90
67822;BMP180;54434;50.096;20.082;2022-10-13T10:13:12;99570.20;;;13.02
67822;BMP180;54434;50.096;20.082;2022-10-13T10:15:57;99566.20;;;13.10
67822;BMP180;54434;50.096;20.082;2022-10-13T10:18:44;99561.00;;;13.20
67822;BMP180;54434;50.096;20.082;2022-10-13T10:21:34;99560.00;;;13.26
67822;BMP180;54434;50.096;20.082;2022-10-13T10:24:27;99554.40;;;13.20
67822;BMP180;54434;50.096;20.082;2022-10-13T10:27:14;99550.20;;;13.26
67822;BMP180;54434;50.096;20.082;2022-10-13T10:30:05;99548.00;;;13.30
67822;BMP180;54434;50.096;20.082;2022-10-13T10:32:50;99543.60;;;13.30
67822;BMP180;54434;50.096;20.082;2022-10-13T10:35:44;99544.60;;;13.40
67822;BMP180;54434;50.096;20.082;2022-10-13T10:38:37;99540.00;;;13.50
67822;BMP180;54434;50.096;20.082;2022-10-13T10:41:37;99535.80;;;13.50
67822;BMP180;54434;50.096;20.082;2022-10-13T10:44:22;99530.00;;;13.60
67822;BMP180;54434;50.096;20.082;2022-10-13T10:47:18;99534.40;;;13.60
67822;BMP180;54434;50.096;20.082;2022-10-13T10:50:03;99530.40;;;13.60
67822;BMP180;54434;50.096;20.082;2022-10-13T10:52:53;99529.20;;;13.70
67822;BMP180;54434;50.096;20.082;2022-10-13T10:55:38;99528.00;;;13.70
67822;BMP180;54434;50.096;20.082;2022-10-13T10:58:35;99526.20;;;13.70
67822;BMP180;54434;50.096;20.082;2022-10-13T11:01:30;99525.00;;;13.80
67822;BMP180;54434;50.096;20.082;2022-10-13T11:04:38;99523.00;;;13.80
67822;BMP180;54434;50.096;20.082;2022-10-13T11:07:59;99518.60;;;13.90
67822;BMP180;54434;50.096;20.082;2022-10-13T11:10:35;99514.00;;;13.94
67822;BMP180;54434;50.096;20.082;2022-10-13T11:13:19;99508.80;;;14.00
67822;BMP180;54434;50.096;20.082;2022-10-13T11:15:56;99502.80;;;14.00
67822;BMP180;54434;50.096;20.082;2022-10-13T11:19:11;99500.40;;;14.10
67822;BMP180;54434;50.096;20.082;2022-10-13T11:22:28;99491.40;;;14.10
67822;BMP180;54434;50.096;20.082;2022-10-13T11:25:39;99492.20;;;14.20
67822;BMP180;54434;50.096;20.082;2022-10-13T11:28:48;99491.60;;;14.20
67822;BMP180;54434;50.096;20.082;2022-10-13T11:31:44;99482.20;;;14.30
67822;BMP180;54434;50.096;20.082;2022-10-13T11:34:32;99480.20;;;14.40
67822;BMP180;54434;50.096;20.082;2022-10-13T11:37:18;99477.20;;;14.40
67822;BMP180;54434;50.096;20.082;2022-10-13T11:40:23;99476.80;;;14.42
67822;BMP180;54434;50.096;20.082;2022-10-13T11:46:36;99470.80;;;14.50
67822;BMP180;54434;50.096;20.082;2022-10-13T11:49:57;99463.60;;;14.60
67822;BMP180;54434;50.096;20.082;2022-10-13T11:53:12;99458.40;;;14.70
67822;BMP180;54434;50.096;20.082;2022-10-13T11:55:55;99456.80;;;14.80
67822;BMP180;54434;50.096;20.082;2022-10-13T11:58:34;99458.40;;;14.90
67822;BMP180;54434;50.096;20.082;2022-10-13T12:01:18;99456.60;;;14.90
67822;BMP180;54434;50.096;20.082;2022-10-13T12:03:54;99451.00;;;14.90
67822;BMP180;54434;50.096;20.082;2022-10-13T12:06:34;99452.80;;;15.00
67822;BMP180;54434;50.096;20.082;2022-10-13T12:09:20;99452.80;;;15.04
67822;BMP180;54434;50.096;20.082;2022-10-13T12:12:16;99449.00;;;15.10
67822;BMP180;54434;50.096;20.082;2022-10-13T12:14:56;99447.60;;;15.10
67822;BMP180;54434;50.096;20.082;2022-10-13T12:17:42;99445.60;;;15.10
67822;BMP180;54434;50.096;20.082;2022-10-13T12:20:27;99442.80;;;15.20
67822;BMP180;54434;50.096;20.082;2022-10-13T12:23:13;99440.80;;;15.20
67822;BMP180;54434;50.096;20.082;2022-10-13T12:25:53;99444.60;;;15.30
67822;BMP180;54434;50.096;20.082;2022-10-13T12:28:48;99443.80;;;15.30
67822;BMP180;54434;50.096;20.082;2022-10-13T12:31:28;99439.20;;;15.32
67822;BMP180;54434;50.096;20.082;2022-10-13T12:34:18;99433.00;;;15.40
67822;BMP180;54434;50.096;20.082;2022-10-13T12:37:01;99430.00;;;15.40
67822;BMP180;54434;50.096;20.082;2022-10-13T12:39:38;99429.80;;;15.40
67822;BMP180;54434;50.096;20.082;2022-10-13T12:42:16;99429.80;;;15.40
67822;BMP180;54434;50.096;20.082;2022-10-13T12:44:52;99420.00;;;15.50
67822;BMP180;54434;50.096;20.082;2022-10-13T12:47:49;99419.60;;;15.50
67822;BMP180;54434;50.096;20.082;2022-10-13T12:50:38;99416.80;;;15.44
67822;BMP180;54434;50.096;20.082;2022-10-13T12:53:20;99416.40;;;15.40
67822;BMP180;54434;50.096;20.082;2022-10-13T12:56:02;99412.20;;;15.44
67822;BMP180;54434;50.096;20.082;2022-10-13T12:58:42;99407.20;;;15.50
67822;BMP180;54434;50.096;20.082;2022-10-13T13:01:34;99410.20;;;15.50
67822;BMP180;54434;50.096;20.082;2022-10-13T13:04:37;99405.40;;;15.50
67822;BMP180;54434;50.096;20.082;2022-10-13T13:07:32;99409.20;;;15.50
67822;BMP180;54434;50.096;20.082;2022-10-13T13:10:19;99405.00;;;15.52
67822;BMP180;54434;50.096;20.082;2022-10-13T13:13:10;99405.60;;;15.60
67822;BMP180;54434;50.096;20.082;2022-10-13T13:15:47;99400.80;;;15.60
67822;BMP180;54434;50.096;20.082;2022-10-13T13:18:42;99401.00;;;15.60
67822;BMP180;54434;50.096;20.082;2022-10-13T13:21:20;99398.40;;;15.60
67822;BMP180;54434;50.096;20.082;2022-10-13T13:23:56;99395.40;;;15.60
67822;BMP180;54434;50.096;20.082;2022-10-13T13:26:35;99393.40;;;15.60
67822;BMP180;54434;50.096;20.082;2022-10-13T13:29:12;99387.20;;;15.60
67822;BMP180;54434;50.096;20.082;2022-10-13T13:31:48;99385.40;;;15.60
67822;BMP180;54434;50.096;20.082;2022-10-13T13:34:23;99388.60;;;15.60
67822;BMP180;54434;50.096;20.082;2022-10-13T13:37:01;99385.40;;;15.60
67822;BMP180;54434;50.096;20.082;2022-10-13T13:39:37;99385.40;;;15.60
67822;BMP180;54434;50.096;20.082;2022-10-13T13:42:16;99386.40;;;15.60
67822;BMP180;54434;50.096;20.082;2022-10-13T13:44:54;99382.80;;;15.60
67822;BMP180;54434;50.096;20.082;2022-10-13T13:47:30;99382.00;;;15.60
67822;BMP180;54434;50.096;20.082;2022-10-13T13:50:15;99384.40;;;15.60
67822;BMP180;54434;50.096;20.082;2022-10-13T13:52:57;99381.60;;;15.60
67822;BMP180;54434;50.096;20.082;2022-10-13T13:55:33;99379.20;;;15.60
67822;BMP180;54434;50.096;20.082;2022-10-13T13:58:12;99380.20;;;15.60
67822;BMP180;54434;50.096;20.082;2022-10-13T14:00:48;99378.40;;;15.60
67822;BMP180;54434;50.096;20.082;2022-10-13T14:03:24;99378.80;;;15.60
67822;BMP180;54434;50.096;20.082;2022-10-13T14:06:00;99379.60;;;15.60
67822;BMP180;54434;50.096;20.082;2022-10-13T14:08:36;99376.00;;;15.60
67822;BMP180;54434;50.096;20.082;2022-10-13T14:11:16;99376.20;;;15.54
67822;BMP180;54434;50.096;20.082;2022-10-13T14:13:52;99375.60;;;15.50
67822;BMP180;54434;50.096;20.082;2022-10-13T14:16:33;99375.00;;;15.50
67822;BMP180;54434;50.096;20.082;2022-10-13T14:19:12;99373.00;;;15.50
67822;BMP180;54434;50.096;20.082;2022-10-13T14:21:48;99373.20;;;15.40
67822;BMP180;54434;50.096;20.082;2022-10-13T14:24:25;99378.40;;;15.40
67822;BMP180;54434;50.096;20.082;2022-10-13T14:27:00;99375.40;;;15.40
67822;BMP180;54434;50.096;20.082;2022-10-13T14:29:39;99377.20;;;15.40
67822;BMP180;54434;50.096;20.082;2022-10-13T14:32:15;99375.60;;;15.30
67822;BMP180;54434;50.096;20.082;2022-10-13T14:34:52;99376.60;;;15.30
67822;BMP180;54434;50.096;20.082;2022-10-13T14:37:28;99378.20;;;15.26
67822;BMP180;54434;50.096;20.082;2022-10-13T14:40:09;99370.00;;;15.20
67822;BMP180;54434;50.096;20.082;2022-10-13T14:42:44;99374.60;;;15.20
67822;BMP180;54434;50.096;20.082;2022-10-13T14:45:21;99372.20;;;15.10
67822;BMP180;54434;50.096;20.082;2022-10-13T14:47:57;99370.60;;;15.10
67822;BMP180;54434;50.096;20.082;2022-10-13T14:50:33;99369.40;;;15.10
67822;BMP180;54434;50.096;20.082;2022-10-13T14:53:11;99368.20;;;15.02
67822;BMP180;54434;50.096;20.082;2022-10-13T14:55:49;99365.40;;;15.00
67822;BMP180;54434;50.096;20.082;2022-10-13T14:58:25;99365.40;;;15.00
67822;BMP180;54434;50.096;20.082;2022-10-13T15:01:00;99361.00;;;14.90
67822;BMP180;54434;50.096;20.082;2022-10-13T15:03:37;99359.20;;;14.88
67822;BMP180;54434;50.096;20.082;2022-10-13T15:06:18;99361.40;;;14.80
67822;BMP180;54434;50.096;20.082;2022-10-13T15:08:55;99366.60;;;14.70
67822;BMP180;54434;50.096;20.082;2022-10-13T15:11:31;99369.20;;;14.60
67822;BMP180;54434;50.096;20.082;2022-10-13T15:14:07;99371.20;;;14.50
67822;BMP180;54434;50.096;20.082;2022-10-13T15:16:44;99369.60;;;14.50
67822;BMP180;54434;50.096;20.082;2022-10-13T15:19:20;99373.40;;;14.40
67822;BMP180;54434;50.096;20.082;2022-10-13T15:21:56;99365.20;;;14.30
67822;BMP180;54434;50.096;20.082;2022-10-13T15:24:32;99366.00;;;14.20
67822;BMP180;54434;50.096;20.082;2022-10-13T15:27:08;99364.00;;;14.10